sensor_id;sensor_type;location;lat;lon;timestamp;pressure;altitude;pressure_sealevel;temperature;humidity
54978;BME280;40873;47.522;19.106;2023-12-22T00:00:06;97951.94;;;6.39;100.00
54978;BME280;40873;47.522;19.106;2023-12-22T00:02:34;97950.94;;;6.51;100.00
54978;BME280;40873;47.522;19.106;2023-12-22T00:05:04;97968.13;;;6.44;100.00
54978;BME280;40873;47.522;19.106;2023-12-22T00:07:31;97946.72;;;6.39;100.00
54978;BME280;40873;47.522;19.106;2023-12-22T00:09:58;97953.09;;;6.46;100.00
54978;BME280;40873;47.522;19.106;2023-12-22T00:12:25;97951.91;;;6.50;100.00
54978;BME280;40873;47.522;19.106;2023-12-22T00:14:52;97952.09;;;6.58;100.00
54978;BME280;40873;47.522;19.106;2023-12-22T00:17:19;97977.34;;;6.59;100.00
54978;BME280;40873;47.522;19.106;2023-12-22T00:19:46;97979.59;;;6.64;100.00
54978;BME280;40873;47.522;19.106;2023-12-22T00:22:13;97981.63;;;6.60;100.00
54978;BME280;40873;47.522;19.106;2023-12-22T00:24:40;97978.31;;;6.58;100.00
54978;BME280;40873;47.522;19.106;2023-12-22T00:27:07;97990.44;;;6.59;100.00
54978;BME280;40873;47.522;19.106;2023-12-22T00:29:34;97996.28;;;6.63;100.00
54978;BME280;40873;47.522;19.106;2023-12-22T00:32:04;98011.41;;;6.59;100.00
54978;BME280;40873;47.522;19.106;2023-12-22T00:34:31;98014.84;;;6.59;100.00
54978;BME280;40873;47.522;19.106;2023-12-22T00:36:58;98025.66;;;6.66;100.00
54978;BME280;40873;47.522;19.106;2023-12-22T00:39:25;98044.63;;;6.58;100.00
54978;BME280;40873;47.522;19.106;2023-12-22T00:41:52;98050.38;;;6.52;100.00
54978;BME280;40873;47.522;19.106;2023-12-22T00:44:19;98048.13;;;6.48;100.00
54978;BME280;40873;47.522;19.106;2023-12-22T00:46:46;98055.38;;;6.44;100.00
54978;BME280;40873;47.522;19.106;2023-12-22T00:49:13;98037.41;;;6.40;100.00
54978;BME280;40873;47.522;19.106;2023-12-22T00:51:40;98047.94;;;6.28;100.00
54978;BME280;40873;47.522;19.106;2023-12-22T00:54:07;98043.16;;;6.22;100.00
54978;BME280;40873;47.522;19.106;2023-12-22T00:56:34;98060.94;;;6.08;100.00
54978;BME280;40873;47.522;19.106;2023-12-22T00:59:01;98065.31;;;6.07;100.00
54978;BME280;40873;47.522;19.106;2023-12-22T01:01:37;98078.19;;;5.99;100.00
54978;BME280;40873;47.522;19.106;2023-12-22T01:04:05;98049.22;;;5.89;100.00
54978;BME280;40873;47.522;19.106;2023-12-22T01:06:32;98015.69;;;5.83;100.00
54978;BME280;40873;47.522;19.106;2023-12-22T01:08:59;98009.41;;;5.86;100.00
54978;BME280;40873;47.522;19.106;2023-12-22T01:11:26;98001.16;;;5.90;100.00
54978;BME280;40873;47.522;19.106;2023-12-22T01:13:53;97996.44;;;5.84;100.00
54978;BME280;40873;47.522;19.106;2023-12-22T01:16:20;98018.78;;;5.88;100.00
54978;BME280;40873;47.522;19.106;2023-12-22T01:18:50;98039.53;;;5.91;100.00
54978;BME280;40873;47.522;19.106;2023-12-22T01:21:18;98047.38;;;5.91;100.00
54978;BME280;40873;47.522;19.106;2023-12-22T01:23:45;98045.81;;;6.00;100.00
54978;BME280;40873;47.522;19.106;2023-12-22T01:26:12;98048.44;;;6.00;100.00
54978;BME280;40873;47.522;19.106;2023-12-22T01:28:39;98068.78;;;5.96;100.00
54978;BME280;40873;47.522;19.106;2023-12-22T01:31:06;98057.84;;;5.91;100.00
54978;BME280;40873;47.522;19.106;2023-12-22T01:33:33;98071.75;;;5.92;100.00
54978;BME280;40873;47.522;19.106;2023-12-22T01:36:00;98074.97;;;5.95;100.00
54978;BME280;40873;47.522;19.106;2023-12-22T01:38:27;98065.56;;;5.93;100.00
54978;BME280;40873;47.522;19.106;2023-12-22T01:40:54;98055.22;;;5.91;100.00
54978;BME280;40873;47.522;19.106;2023-12-22T01:43:21;98048.28;;;5.90;100.00
54978;BME280;40873;47.522;19.106;2023-12-22T01:45:52;98051.66;;;5.92;100.00
54978;BME280;40873;47.522;19.106;2023-12-22T01:48:23;98043.69;;;5.94;100.00
54978;BME280;40873;47.522;19.106;2023-12-22T01:50:51;98056.25;;;5.89;100.00
54978;BME280;40873;47.522;19.106;2023-12-22T01:53:24;98036.41;;;5.86;100.00
54978;BME280;40873;47.522;19.106;2023-12-22T01:55:51;98048.09;;;5.93;100.00
54978;BME280;40873;47.522;19.106;2023-12-22T01:58:20;98047.25;;;5.93;100.00
54978;BME280;40873;47.522;19.106;2023-12-22T02:00:49;98027.97;;;6.05;100.00
54978;BME280;40873;47.522;19.106;2023-12-22T02:03:16;98023.19;;;6.10;100.00
54978;BME280;40873;47.522;19.106;2023-12-22T02:05:43;98010.84;;;6.12;100.00
54978;BME280;40873;47.522;19.106;2023-12-22T02:08:11;97975.72;;;6.15;100.00
54978;BME280;40873;47.522;19.106;2023-12-22T02:10:39;97963.81;;;6.11;100.00
54978;BME280;40873;47.522;19.106;2023-12-22T02:13:09;97981.31;;;6.10;100.00
54978;BME280;40873;47.522;19.106;2023-12-22T02:15:36;97975.72;;;6.15;100.00
54978;BME280;40873;47.522;19.106;2023-12-22T02:18:10;97968.81;;;6.14;100.00
54978;BME280;40873;47.522;19.106;2023-12-22T02:20:39;97967.72;;;6.16;100.00
54978;BME280;40873;47.522;19.106;2023-12-22T02:23:06;97963.59;;;6.14;100.00
54978;BME280;40873;47.522;19.106;2023-12-22T02:25:33;97989.97;;;6.22;100.00
54978;BME280;40873;47.522;19.106;2023-12-22T02:28:10;97967.50;;;6.19;100.00
54978;BME280;40873;47.522;19.106;2023-12-22T02:33:27;97964.63;;;6.11;100.00
54978;BME280;40873;47.522;19.106;2023-12-22T02:36:03;97973.72;;;6.07;100.00
54978;BME280;40873;47.522;19.106;2023-12-22T02:38:31;97968.59;;;6.06;100.00
54978;BME280;40873;47.522;19.106;2023-12-22T02:41:00;97990.59;;;6.03;100.00
54978;BME280;40873;47.522;19.106;2023-12-22T02:43:28;98007.13;;;6.03;100.00
54978;BME280;40873;47.522;19.106;2023-12-22T02:45:55;98007.41;;;6.00;100.00
54978;BME280;40873;47.522;19.106;2023-12-22T02:48:22;98025.09;;;5.97;100.00
54978;BME280;40873;47.522;19.106;2023-12-22T02:50:50;98020.13;;;5.94;100.00
54978;BME280;40873;47.522;19.106;2023-12-22T02:53:17;98027.72;;;5.86;100.00
54978;BME280;40873;47.522;19.106;2023-12-22T02:55:44;98046.25;;;5.83;100.00
54978;BME280;40873;47.522;19.106;2023-12-22T02:58:11;98028.91;;;5.82;100.00
54978;BME280;40873;47.522;19.106;2023-12-22T03:00:38;97988.94;;;5.80;100.00
54978;BME280;40873;47.522;19.106;2023-12-22T03:03:05;97984.19;;;5.62;100.00
54978;BME280;40873;47.522;19.106;2023-12-22T03:05:32;97995.38;;;5.64;100.00
54978;BME280;40873;47.522;19.106;2023-12-22T03:08:02;98007.72;;;5.62;100.00
54978;BME280;40873;47.522;19.106;2023-12-22T03:10:29;98003.69;;;5.58;100.00
54978;BME280;40873;47.522;19.106;2023-12-22T03:12:57;97997.03;;;5.65;100.00
54978;BME280;40873;47.522;19.106;2023-12-22T03:15:24;97996.69;;;5.59;100.00
54978;BME280;40873;47.522;19.106;2023-12-22T03:17:51;97998.81;;;5.65;100.00
54978;BME280;40873;47.522;19.106;2023-12-22T03:20:18;98007.25;;;5.68;100.00
54978;BME280;40873;47.522;19.106;2023-12-22T03:22:45;98007.13;;;5.59;100.00
54978;BME280;40873;47.522;19.106;2023-12-22T03:25:12;98010.81;;;5.56;100.00
54978;BME280;40873;47.522;19.106;2023-12-22T03:27:39;98018.66;;;5.56;100.00
54978;BME280;40873;47.522;19.106;2023-12-22T03:30:09;98039.00;;;5.53;100.00
54978;BME280;40873;47.522;19.106;2023-12-22T03:32:37;98034.09;;;5.48;100.00
54978;BME280;40873;47.522;19.106;2023-12-22T03:35:04;98052.78;;;5.55;100.00
54978;BME280;40873;47.522;19.106;2023-12-22T03:37:31;98064.06;;;5.55;100.00
54978;BME280;40873;47.522;19.106;2023-12-22T03:39:59;98062.66;;;5.62;100.00
54978;BME280;40873;47.522;19.106;2023-12-22T03:42:26;98074.91;;;5.62;100.00
54978;BME280;40873;47.522;19.106;2023-12-22T03:44:53;98071.47;;;5.72;100.00
54978;BME280;40873;47.522;19.106;2023-12-22T03:47:20;98056.81;;;5.70;100.00
54978;BME280;40873;47.522;19.106;2023-12-22T03:49:46;98072.66;;;5.68;100.00
54978;BME280;40873;47.522;19.106;2023-12-22T03:52:14;98067.19;;;5.71;100.00
54978;BME280;40873;47.522;19.106;2023-12-22T03:54:41;98083.34;;;5.76;100.00
54978;BME280;40873;47.522;19.106;2023-12-22T03:57:08;98073.13;;;5.73;100.00
54978;BME280;40873;47.522;19.106;2023-12-22T03:59:35;98082.16;;;5.69;100.00
54978;BME280;40873;47.522;19.106;2023-12-22T04:02:02;98086.22;;;5.73;100.00
54978;BME280;40873;47.522;19.106;2023-12-22T04:04:29;98094.19;;;5.83;100.00
54978;BME280;40873;47.522;19.106;2023-12-22T04:06:57;98088.50;;;5.78;100.00
54978;BME280;40873;47.522;19.106;2023-12-22T04:09:23;98099.66;;;5.80;100.00
54978;BME280;40873;47.522;19.106;2023-12-22T04:11:51;98108.09;;;5.72;100.00
54978;BME280;40873;47.522;19.106;2023-12-22T04:14:17;98108.31;;;5.69;100.00
54978;BME280;40873;47.522;19.106;2023-12-22T04:16:45;98107.72;;;5.66;100.00
54978;BME280;40873;47.522;19.106;2023-12-22T04:19:12;98114.88;;;5.64;100.00
54978;BME280;40873;47.522;19.106;2023-12-22T04:21:40;98128.28;;;5.59;100.00
54978;BME280;40873;47.522;19.106;2023-12-22T04:24:06;98129.94;;;5.60;100.00
54978;BME280;40873;47.522;19.106;2023-12-22T04:26:34;98128.75;;;5.53;100.00
54978;BME280;40873;47.522;19.106;2023-12-22T04:29:00;98118.03;;;5.56;100.00
54978;BME280;40873;47.522;19.106;2023-12-22T04:31:31;98150.50;;;5.54;100.00
54978;BME280;40873;47.522;19.106;2023-12-22T04:33:59;98159.75;;;5.46;100.00
54978;BME280;40873;47.522;19.106;2023-12-22T04:36:29;98184.19;;;5.34;100.00
54978;BME280;40873;47.522;19.106;2023-12-22T04:38:56;98173.19;;;5.18;100.00
54978;BME280;40873;47.522;19.106;2023-12-22T04:41:23;98161.13;;;5.04;100.00
54978;BME280;40873;47.522;19.106;2023-12-22T04:43:50;98153.34;;;4.91;100.00
54978;BME280;40873;47.522;19.106;2023-12-22T04:46:18;98151.72;;;4.78;100.00
54978;BME280;40873;47.522;19.106;2023-12-22T04:48:45;98150.59;;;4.69;100.00
54978;BME280;40873;47.522;19.106;2023-12-22T04:51:12;98150.19;;;4.62;100.00
54978;BME280;40873;47.522;19.106;2023-12-22T04:53:39;98150.94;;;4.52;100.00
54978;BME280;40873;47.522;19.106;2023-12-22T04:56:06;98151.59;;;4.43;100.00
54978;BME280;40873;47.522;19.106;2023-12-22T04:58:33;98150.91;;;4.28;100.00
54978;BME280;40873;47.522;19.106;2023-12-22T05:01:00;98162.06;;;4.30;100.00
54978;BME280;40873;47.522;19.106;2023-12-22T05:03:27;98162.41;;;4.25;100.00
54978;BME280;40873;47.522;19.106;2023-12-22T05:05:54;98159.47;;;4.17;100.00
54978;BME280;40873;47.522;19.106;2023-12-22T05:08:21;98160.50;;;4.15;100.00
54978;BME280;40873;47.522;19.106;2023-12-22T05:10:48;98167.94;;;4.21;100.00
54978;BME280;40873;47.522;19.106;2023-12-22T05:13:15;98173.44;;;4.16;100.00
54978;BME280;40873;47.522;19.106;2023-12-22T05:15:42;98176.91;;;4.17;100.00
54978;BME280;40873;47.522;19.106;2023-12-22T05:18:13;98179.31;;;4.07;100.00
54978;BME280;40873;47.522;19.106;2023-12-22T05:20:40;98177.84;;;4.03;100.00
54978;BME280;40873;47.522;19.106;2023-12-22T05:23:07;98176.69;;;4.07;100.00
54978;BME280;40873;47.522;19.106;2023-12-22T05:25:35;98181.91;;;4.07;100.00
54978;BME280;40873;47.522;19.106;2023-12-22T05:28:01;98185.88;;;4.12;100.00
54978;BME280;40873;47.522;19.106;2023-12-22T05:30:29;98189.75;;;4.07;100.00
54978;BME280;40873;47.522;19.106;2023-12-22T05:32:55;98200.72;;;3.99;100.00
54978;BME280;40873;47.522;19.106;2023-12-22T05:35:23;98199.88;;;3.99;100.00
54978;BME280;40873;47.522;19.106;2023-12-22T05:37:50;98208.25;;;4.04;100.00
54978;BME280;40873;47.522;19.106;2023-12-22T05:40:17;98217.91;;;4.02;100.00
54978;BME280;40873;47.522;19.106;2023-12-22T05:42:44;98219.16;;;3.96;100.00
54978;BME280;40873;47.522;19.106;2023-12-22T05:45:12;98220.63;;;4.00;100.00
54978;BME280;40873;47.522;19.106;2023-12-22T05:47:39;98217.50;;;3.95;100.00
54978;BME280;40873;47.522;19.106;2023-12-22T05:50:07;98204.03;;;4.01;100.00
54978;BME280;40873;47.522;19.106;2023-12-22T05:52:34;98213.47;;;4.04;100.00
54978;BME280;40873;47.522;19.106;2023-12-22T05:55:02;98206.13;;;3.96;100.00
54978;BME280;40873;47.522;19.106;2023-12-22T05:57:32;98216.38;;;3.99;100.00
54978;BME280;40873;47.522;19.106;2023-12-22T06:00:01;98205.72;;;4.02;100.00
54978;BME280;40873;47.522;19.106;2023-12-22T06:02:27;98211.47;;;4.07;100.00
54978;BME280;40873;47.522;19.106;2023-12-22T06:04:55;98218.16;;;4.11;100.00
54978;BME280;40873;47.522;19.106;2023-12-22T06:07:22;98222.44;;;4.12;100.00
54978;BME280;40873;47.522;19.106;2023-12-22T06:09:49;98226.06;;;4.23;100.00
54978;BME280;40873;47.522;19.106;2023-12-22T06:12:15;98237.56;;;4.33;100.00
54978;BME280;40873;47.522;19.106;2023-12-22T06:14:43;98241.09;;;4.45;100.00
54978;BME280;40873;47.522;19.106;2023-12-22T06:17:09;98248.91;;;4.45;100.00
54978;BME280;40873;47.522;19.106;2023-12-22T06:19:37;98249.03;;;4.43;100.00
54978;BME280;40873;47.522;19.106;2023-12-22T06:22:04;98260.00;;;4.48;100.00
54978;BME280;40873;47.522;19.106;2023-12-22T06:24:31;98273.06;;;4.48;100.00
54978;BME280;40873;47.522;19.106;2023-12-22T06:26:58;98272.34;;;4.46;100.00
54978;BME280;40873;47.522;19.106;2023-12-22T06:29:26;98281.19;;;4.56;100.00
54978;BME280;40873;47.522;19.106;2023-12-22T06:31:57;98275.88;;;4.58;100.00
54978;BME280;40873;47.522;19.106;2023-12-22T06:34:27;98280.38;;;4.56;100.00
54978;BME280;40873;47.522;19.106;2023-12-22T06:36:54;98286.94;;;4.61;100.00
54978;BME280;40873;47.522;19.106;2023-12-22T06:39:21;98297.09;;;4.66;100.00
54978;BME280;40873;47.522;19.106;2023-12-22T06:41:48;98305.31;;;4.73;100.00
54978;BME280;40873;47.522;19.106;2023-12-22T06:44:15;98301.56;;;4.77;100.00
54978;BME280;40873;47.522;19.106;2023-12-22T06:46:42;98296.09;;;4.80;100.00
54978;BME280;40873;47.522;19.106;2023-12-22T06:49:09;98298.63;;;4.81;100.00
54978;BME280;40873;47.522;19.106;2023-12-22T06:51:36;98308.25;;;4.81;100.00
54978;BME280;40873;47.522;19.106;2023-12-22T06:54:04;98301.97;;;4.83;100.00
54978;BME280;40873;47.522;19.106;2023-12-22T06:56:35;98296.09;;;4.80;100.00
54978;BME280;40873;47.522;19.106;2023-12-22T06:59:02;98293.41;;;4.81;100.00
54978;BME280;40873;47.522;19.106;2023-12-22T07:01:35;98312.66;;;4.80;100.00
54978;BME280;40873;47.522;19.106;2023-12-22T07:04:04;98316.09;;;4.81;100.00
54978;BME280;40873;47.522;19.106;2023-12-22T07:06:33;98315.75;;;4.85;100.00
54978;BME280;40873;47.522;19.106;2023-12-22T07:11:51;98332.25;;;4.86;99.06
54978;BME280;40873;47.522;19.106;2023-12-22T07:14:19;98337.72;;;4.83;98.93
54978;BME280;40873;47.522;19.106;2023-12-22T07:16:47;98333.31;;;4.83;98.88
54978;BME280;40873;47.522;19.106;2023-12-22T07:19:14;98333.63;;;4.91;96.39
54978;BME280;40873;47.522;19.106;2023-12-22T07:21:42;98327.03;;;4.99;96.61
54978;BME280;40873;47.522;19.106;2023-12-22T07:24:13;98329.75;;;4.97;98.04
54978;BME280;40873;47.522;19.106;2023-12-22T07:26:42;98336.44;;;5.01;95.59
54978;BME280;40873;47.522;19.106;2023-12-22T07:29:11;98331.84;;;5.05;95.60
54978;BME280;40873;47.522;19.106;2023-12-22T07:31:42;98339.97;;;5.13;95.35
54978;BME280;40873;47.522;19.106;2023-12-22T07:34:12;98348.75;;;5.12;96.28
54978;BME280;40873;47.522;19.106;2023-12-22T07:36:39;98327.00;;;5.11;95.66
54978;BME280;40873;47.522;19.106;2023-12-22T07:39:17;98337.47;;;5.11;96.02
54978;BME280;40873;47.522;19.106;2023-12-22T07:41:45;98346.25;;;5.10;97.44
54978;BME280;40873;47.522;19.106;2023-12-22T07:44:12;98343.84;;;5.07;96.68
54978;BME280;40873;47.522;19.106;2023-12-22T07:46:39;98353.25;;;5.10;96.99
54978;BME280;40873;47.522;19.106;2023-12-22T07:49:09;98350.75;;;5.08;97.67
54978;BME280;40873;47.522;19.106;2023-12-22T07:51:37;98351.25;;;5.13;96.63
54978;BME280;40873;47.522;19.106;2023-12-22T07:54:07;98359.44;;;5.21;96.44
54978;BME280;40873;47.522;19.106;2023-12-22T07:56:35;98355.09;;;5.20;96.68
54978;BME280;40873;47.522;19.106;2023-12-22T07:59:02;98365.66;;;5.32;96.14
54978;BME280;40873;47.522;19.106;2023-12-22T08:01:48;98364.72;;;5.33;96.74
54978;BME280;40873;47.522;19.106;2023-12-22T08:04:15;98352.03;;;5.39;96.20
54978;BME280;40873;47.522;19.106;2023-12-22T08:06:43;98362.34;;;5.54;94.89
54978;BME280;40873;47.522;19.106;2023-12-22T08:09:10;98360.69;;;5.53;94.94
54978;BME280;40873;47.522;19.106;2023-12-22T08:11:37;98350.31;;;5.64;95.37
54978;BME280;40873;47.522;19.106;2023-12-22T08:14:04;98366.59;;;5.67;95.45
54978;BME280;40873;47.522;19.106;2023-12-22T08:16:31;98365.78;;;5.67;96.80
54978;BME280;40873;47.522;19.106;2023-12-22T08:18:59;98361.25;;;5.69;97.83
54978;BME280;40873;47.522;19.106;2023-12-22T08:21:28;98363.03;;;5.68;98.08
54978;BME280;40873;47.522;19.106;2023-12-22T08:24:10;98370.25;;;5.77;96.99
54978;BME280;40873;47.522;19.106;2023-12-22T08:26:46;98375.56;;;5.76;97.83
54978;BME280;40873;47.522;19.106;2023-12-22T08:29:13;98366.25;;;5.85;94.63
54978;BME280;40873;47.522;19.106;2023-12-22T08:31:41;98379.50;;;5.94;94.08
54978;BME280;40873;47.522;19.106;2023-12-22T08:34:11;98372.75;;;6.03;93.98
54978;BME280;40873;47.522;19.106;2023-12-22T08:36:38;98381.56;;;6.02;94.61
54978;BME280;40873;47.522;19.106;2023-12-22T08:39:05;98379.91;;;6.01;96.63
54978;BME280;40873;47.522;19.106;2023-12-22T08:41:33;98387.88;;;5.99;96.28
54978;BME280;40873;47.522;19.106;2023-12-22T08:44:04;98390.88;;;6.06;97.05
54978;BME280;40873;47.522;19.106;2023-12-22T08:46:33;98387.25;;;6.20;94.12
54978;BME280;40873;47.522;19.106;2023-12-22T08:49:00;98401.81;;;6.11;93.05
54978;BME280;40873;47.522;19.106;2023-12-22T08:51:27;98386.34;;;6.08;91.96
54978;BME280;40873;47.522;19.106;2023-12-22T08:53:55;98416.56;;;6.01;91.36
54978;BME280;40873;47.522;19.106;2023-12-22T08:56:22;98406.59;;;6.06;90.25
54978;BME280;40873;47.522;19.106;2023-12-22T08:58:52;98403.03;;;6.07;90.57
54978;BME280;40873;47.522;19.106;2023-12-22T09:01:20;98407.69;;;6.15;92.64
54978;BME280;40873;47.522;19.106;2023-12-22T09:03:48;98413.38;;;6.09;92.40
54978;BME280;40873;47.522;19.106;2023-12-22T09:06:20;98401.00;;;6.11;91.82
54978;BME280;40873;47.522;19.106;2023-12-22T09:08:50;98403.53;;;6.12;92.90
54978;BME280;40873;47.522;19.106;2023-12-22T09:11:19;98402.66;;;6.12;93.83
54978;BME280;40873;47.522;19.106;2023-12-22T09:13:46;98410.50;;;6.12;94.65
54978;BME280;40873;47.522;19.106;2023-12-22T09:16:13;98426.34;;;6.10;95.68
54978;BME280;40873;47.522;19.106;2023-12-22T09:18:43;98408.13;;;6.09;97.64
54978;BME280;40873;47.522;19.106;2023-12-22T09:21:11;98412.53;;;6.08;98.12
54978;BME280;40873;47.522;19.106;2023-12-22T09:23:38;98412.31;;;6.11;99.04
54978;BME280;40873;47.522;19.106;2023-12-22T09:26:05;98407.41;;;6.07;100.00
54978;BME280;40873;47.522;19.106;2023-12-22T09:28:33;98396.59;;;6.11;99.48
54978;BME280;40873;47.522;19.106;2023-12-22T09:31:00;98400.78;;;6.14;99.04
54978;BME280;40873;47.522;19.106;2023-12-22T09:33:27;98405.97;;;6.26;96.54
54978;BME280;40873;47.522;19.106;2023-12-22T09:35:54;98383.94;;;6.29;96.43
54978;BME280;40873;47.522;19.106;2023-12-22T09:38:21;98372.31;;;6.33;96.00
54978;BME280;40873;47.522;19.106;2023-12-22T09:40:51;98379.72;;;6.50;95.93
54978;BME280;40873;47.522;19.106;2023-12-22T09:43:19;98382.47;;;6.49;96.13
54978;BME280;40873;47.522;19.106;2023-12-22T09:45:47;98396.28;;;6.51;96.41
54978;BME280;40873;47.522;19.106;2023-12-22T09:48:20;98392.38;;;6.56;95.68
54978;BME280;40873;47.522;19.106;2023-12-22T09:50:54;98407.59;;;6.51;97.21
54978;BME280;40873;47.522;19.106;2023-12-22T09:53:23;98393.78;;;6.49;97.59
54978;BME280;40873;47.522;19.106;2023-12-22T09:55:53;98415.19;;;6.43;98.44
54978;BME280;40873;47.522;19.106;2023-12-22T09:58:21;98399.22;;;6.46;99.71
54978;BME280;40873;47.522;19.106;2023-12-22T10:00:49;98405.94;;;6.50;98.90
54978;BME280;40873;47.522;19.106;2023-12-22T10:03:18;98414.16;;;6.57;98.12
54978;BME280;40873;47.522;19.106;2023-12-22T10:05:47;98406.03;;;6.49;99.48
54978;BME280;40873;47.522;19.106;2023-12-22T10:08:14;98403.31;;;6.50;100.00
54978;BME280;40873;47.522;19.106;2023-12-22T10:10:42;98411.28;;;6.49;100.00
54978;BME280;40873;47.522;19.106;2023-12-22T10:13:10;98387.97;;;6.57;98.47
54978;BME280;40873;47.522;19.106;2023-12-22T10:15:39;98401.19;;;6.55;100.00
54978;BME280;40873;47.522;19.106;2023-12-22T10:18:10;98407.59;;;6.51;98.76
54978;BME280;40873;47.522;19.106;2023-12-22T10:20:38;98405.47;;;6.56;99.50
54978;BME280;40873;47.522;19.106;2023-12-22T10:23:05;98387.34;;;6.53;99.87
54978;BME280;40873;47.522;19.106;2023-12-22T10:25:32;98391.28;;;6.48;100.00
54978;BME280;40873;47.522;19.106;2023-12-22T10:28:00;98378.84;;;6.39;99.36
54978;BME280;40873;47.522;19.106;2023-12-22T10:30:32;98376.84;;;6.42;99.49
54978;BME280;40873;47.522;19.106;2023-12-22T10:33:03;98379.22;;;6.45;100.00
54978;BME280;40873;47.522;19.106;2023-12-22T10:35:31;98356.72;;;6.43;99.91
54978;BME280;40873;47.522;19.106;2023-12-22T10:37:59;98356.84;;;6.41;98.68
54978;BME280;40873;47.522;19.106;2023-12-22T10:40:30;98365.63;;;6.75;98.54
54978;BME280;40873;47.522;19.106;2023-12-22T10:42:58;98331.56;;;6.75;98.68
54978;BME280;40873;47.522;19.106;2023-12-22T10:45:26;98333.31;;;6.64;97.51
54978;BME280;40873;47.522;19.106;2023-12-22T10:47:57;98328.47;;;7.04;96.02
54978;BME280;40873;47.522;19.106;2023-12-22T10:50:26;98334.63;;;7.36;95.21
54978;BME280;40873;47.522;19.106;2023-12-22T10:52:54;98324.88;;;7.05;94.81
54978;BME280;40873;47.522;19.106;2023-12-22T10:55:26;98332.50;;;7.19;92.62
54978;BME280;40873;47.522;19.106;2023-12-22T10:57:53;98332.25;;;7.45;92.27
54978;BME280;40873;47.522;19.106;2023-12-22T11:00:24;98340.28;;;7.64;91.48
54978;BME280;40873;47.522;19.106;2023-12-22T11:02:59;98321.53;;;7.80;89.55
54978;BME280;40873;47.522;19.106;2023-12-22T11:05:28;98324.38;;;7.77;89.32
54978;BME280;40873;47.522;19.106;2023-12-22T11:07:59;98320.13;;;8.08;88.85
54978;BME280;40873;47.522;19.106;2023-12-22T11:10:30;98348.16;;;8.07;89.16
54978;BME280;40873;47.522;19.106;2023-12-22T11:12:59;98340.38;;;8.06;89.57
54978;BME280;40873;47.522;19.106;2023-12-22T11:15:27;98331.84;;;7.92;88.22
54978;BME280;40873;47.522;19.106;2023-12-22T11:17:56;98330.16;;;8.03;88.75
54978;BME280;40873;47.522;19.106;2023-12-22T11:20:26;98350.50;;;7.78;89.44
54978;BME280;40873;47.522;19.106;2023-12-22T11:22:56;98339.22;;;7.66;90.67
54978;BME280;40873;47.522;19.106;2023-12-22T11:25:26;98311.59;;;7.51;87.97
54978;BME280;40873;47.522;19.106;2023-12-22T11:27:55;98314.59;;;7.79;89.46
54978;BME280;40873;47.522;19.106;2023-12-22T11:30:24;98315.59;;;7.98;89.13
54978;BME280;40873;47.522;19.106;2023-12-22T11:32:53;98314.50;;;7.80;89.75
54978;BME280;40873;47.522;19.106;2023-12-22T11:35:23;98330.81;;;7.40;91.04
54978;BME280;40873;47.522;19.106;2023-12-22T11:38:01;98324.59;;;7.53;91.24
54978;BME280;40873;47.522;19.106;2023-12-22T11:40:29;98288.00;;;7.40;92.38
54978;BME280;40873;47.522;19.106;2023-12-22T11:42:56;98324.94;;;7.37;92.55
54978;BME280;40873;47.522;19.106;2023-12-22T11:45:24;98315.72;;;7.10;92.89
54978;BME280;40873;47.522;19.106;2023-12-22T11:47:51;98326.06;;;7.01;93.64
54978;BME280;40873;47.522;19.106;2023-12-22T11:50:37;98328.22;;;7.18;91.46
54978;BME280;40873;47.522;19.106;2023-12-22T11:53:22;98327.25;;;7.08;90.26
54978;BME280;40873;47.522;19.106;2023-12-22T11:56:00;98311.75;;;6.94;89.93
54978;BME280;40873;47.522;19.106;2023-12-22T12:01:10;98311.88;;;6.81;91.96
54978;BME280;40873;47.522;19.106;2023-12-22T12:03:50;98327.72;;;6.79;91.75
54978;BME280;40873;47.522;19.106;2023-12-22T12:08:58;98341.06;;;6.76;92.20
54978;BME280;40873;47.522;19.106;2023-12-22T12:12:27;98340.25;;;6.76;91.35
54978;BME280;40873;47.522;19.106;2023-12-22T12:14:41;98365.47;;;6.66;90.95
54978;BME280;40873;47.522;19.106;2023-12-22T12:17:10;98337.00;;;6.72;93.43
54978;BME280;40873;47.522;19.106;2023-12-22T12:19:40;98362.16;;;6.75;92.08
54978;BME280;40873;47.522;19.106;2023-12-22T12:22:11;98338.81;;;6.72;90.26
54978;BME280;40873;47.522;19.106;2023-12-22T12:24:41;98347.28;;;6.86;91.76
54978;BME280;40873;47.522;19.106;2023-12-22T12:27:09;98345.72;;;6.84;92.37
54978;BME280;40873;47.522;19.106;2023-12-22T12:29:36;98347.28;;;6.75;93.49
54978;BME280;40873;47.522;19.106;2023-12-22T12:32:06;98351.69;;;6.75;94.54
54978;BME280;40873;47.522;19.106;2023-12-22T12:34:34;98343.81;;;6.86;94.77
54978;BME280;40873;47.522;19.106;2023-12-22T12:37:02;98339.88;;;6.92;96.29
54978;BME280;40873;47.522;19.106;2023-12-22T12:39:34;98333.44;;;7.07;99.79
54978;BME280;40873;47.522;19.106;2023-12-22T12:42:01;98325.59;;;7.18;97.12
54978;BME280;40873;47.522;19.106;2023-12-22T12:44:30;98353.72;;;6.94;96.14
54978;BME280;40873;47.522;19.106;2023-12-22T12:47:11;98348.41;;;6.49;98.45
54978;BME280;40873;47.522;19.106;2023-12-22T12:49:38;98353.69;;;6.25;100.00
54978;BME280;40873;47.522;19.106;2023-12-22T12:52:05;98395.69;;;5.63;100.00
54978;BME280;40873;47.522;19.106;2023-12-22T12:54:33;98418.06;;;4.92;100.00
54978;BME280;40873;47.522;19.106;2023-12-22T12:57:00;98397.25;;;4.65;100.00
54978;BME280;40873;47.522;19.106;2023-12-22T12:59:27;98393.69;;;4.40;100.00
54978;BME280;40873;47.522;19.106;2023-12-22T13:01:54;98388.34;;;4.42;100.00
54978;BME280;40873;47.522;19.106;2023-12-22T13:04:22;98386.19;;;4.49;100.00
54978;BME280;40873;47.522;19.106;2023-12-22T13:06:49;98399.97;;;4.51;100.00
54978;BME280;40873;47.522;19.106;2023-12-22T13:09:18;98410.81;;;4.45;100.00
54978;BME280;40873;47.522;19.106;2023-12-22T13:11:46;98432.75;;;4.42;100.00